createdAt,value
2022-08-21T00:02:02.144Z,84.84
2022-08-21T00:04:29.524Z,84.73
2022-08-21T00:06:58.034Z,85.11
2022-08-21T00:09:24.465Z,85.07
2022-08-21T00:11:50.995Z,85.19
2022-08-21T00:14:17.817Z,85.55
2022-08-21T00:16:44.345Z,85.30
2022-08-21T00:19:11.118Z,85.19
2022-08-21T00:21:37.746Z,85.52
2022-08-21T00:24:04.727Z,85.79
2022-08-21T00:26:31.195Z,85.59
2022-08-21T00:28:58.402Z,86.06
2022-08-21T00:31:25.898Z,85.98
2022-08-21T00:33:52.603Z,86.19
2022-08-21T00:36:24.427Z,86.15
2022-08-21T00:38:50.878Z,86.19
2022-08-21T00:41:36.289Z,85.98
2022-08-21T00:44:04.891Z,86.01
2022-08-21T00:46:31.686Z,86.13
2022-08-21T00:48:59.418Z,86.65
2022-08-21T00:51:40.927Z,86.84
2022-08-21T00:54:12.942Z,85.98
2022-08-21T00:56:48.408Z,86.14
2022-08-21T00:59:15.628Z,86.06
2022-08-21T01:01:42.054Z,86.83
2022-08-21T01:04:08.611Z,86.66
2022-08-21T01:06:36.083Z,86.72
2022-08-21T01:09:03.722Z,87.29
2022-08-21T01:11:30.827Z,87.38
2022-08-21T01:13:57.421Z,87.31
2022-08-21T01:16:24.469Z,87.46
2022-08-21T01:18:52.140Z,87.85
2022-08-21T01:21:28.675Z,87.89
2022-08-21T01:23:57.473Z,87.55
2022-08-21T01:26:34.150Z,87.65
2022-08-21T01:29:10.968Z,87.89
2022-08-21T01:31:38.118Z,87.83
2022-08-21T01:34:05.821Z,87.31
2022-08-21T01:36:32.579Z,87.26
2022-08-21T01:38:59.255Z,87.65
2022-08-21T01:41:25.814Z,87.90
2022-08-21T01:43:52.284Z,87.40
2022-08-21T01:46:19.312Z,87.02
2022-08-21T01:48:45.807Z,86.75
2022-08-21T01:51:12.972Z,86.63
2022-08-21T01:53:40.347Z,86.73
2022-08-21T01:56:12.719Z,86.92
2022-08-21T01:58:42.394Z,86.66
2022-08-21T02:01:10.326Z,87.17
2022-08-21T02:03:37.707Z,86.87
2022-08-21T02:06:07.729Z,87.33
2022-08-21T02:08:34.965Z,87.27
2022-08-21T02:11:01.671Z,87.88
2022-08-21T02:13:28.075Z,88.08
2022-08-21T02:15:54.522Z,87.99
2022-08-21T02:18:21.177Z,87.99
2022-08-21T02:20:56.026Z,87.87
2022-08-21T02:23:26.640Z,87.88
2022-08-21T02:25:57.939Z,87.76
2022-08-21T02:28:24.618Z,87.67
2022-08-21T02:30:53.486Z,87.71
2022-08-21T02:33:20.492Z,87.66
2022-08-21T02:35:48.159Z,88.18
2022-08-21T02:38:18.520Z,88.48
2022-08-21T02:40:48.085Z,87.45
2022-08-21T02:43:16.485Z,87.44
2022-08-21T02:45:44.624Z,88.60
2022-08-21T02:48:14.630Z,88.36
2022-08-21T02:50:44.279Z,88.17
2022-08-21T02:53:15.324Z,88.35
2022-08-21T02:55:41.796Z,88.46
2022-08-21T02:58:09.138Z,88.44
2022-08-21T03:00:37.697Z,88.37
2022-08-21T03:03:05.788Z,88.46
2022-08-21T03:05:33.872Z,88.16
2022-08-21T03:08:02.790Z,88.34
2022-08-21T03:10:30.048Z,88.14
2022-08-21T03:12:56.627Z,88.29
2022-08-21T03:15:25.706Z,88.10
2022-08-21T03:17:55.335Z,88.27
2022-08-21T03:20:24.858Z,88.29
2022-08-21T03:22:53.279Z,88.19
2022-08-21T03:25:28.349Z,88.49
2022-08-21T03:28:12.876Z,88.78
2022-08-21T03:30:45.427Z,88.77
2022-08-21T03:33:14.990Z,88.75
2022-08-21T03:35:44.173Z,88.62
2022-08-21T03:38:11.311Z,88.48
2022-08-21T03:40:37.853Z,88.65
2022-08-21T03:43:04.312Z,88.89
2022-08-21T03:45:30.831Z,88.99
2022-08-21T03:47:58.985Z,88.82
2022-08-21T03:50:28.011Z,89.79
2022-08-21T03:52:54.561Z,89.52
2022-08-21T03:55:21.190Z,89.50
2022-08-21T03:57:47.807Z,89.45
2022-08-21T04:00:16.158Z,89.60
2022-08-21T04:02:44.618Z,89.37
2022-08-21T04:05:13.589Z,89.15
2022-08-21T04:07:42.951Z,89.07
2022-08-21T04:10:09.792Z,88.99
2022-08-21T04:12:36.399Z,89.46
2022-08-21T04:15:03.146Z,89.54
2022-08-21T04:17:29.617Z,88.98
2022-08-21T04:19:56.197Z,88.86
2022-08-21T04:22:23.207Z,89.04
2022-08-21T04:24:49.778Z,89.17
2022-08-21T04:27:16.206Z,89.57
2022-08-21T04:29:42.629Z,89.63
2022-08-21T04:32:09.212Z,89.86
2022-08-21T04:34:35.682Z,89.96
2022-08-21T04:37:02.110Z,90.45
2022-08-21T04:39:29.718Z,90.51
2022-08-21T04:41:56.523Z,90.52
2022-08-21T04:44:22.942Z,90.82
2022-08-21T04:46:49.357Z,90.68
2022-08-21T04:49:15.834Z,90.57
2022-08-21T04:51:42.516Z,90.66
2022-08-21T04:54:13.319Z,90.39
2022-08-21T04:56:48.157Z,91.25
2022-08-21T04:59:25.228Z,90.74
2022-08-21T05:01:52.703Z,90.33
2022-08-21T05:04:23.399Z,90.46
2022-08-21T05:06:52.380Z,90.30
2022-08-21T05:09:20.375Z,90.30
2022-08-21T05:11:47.271Z,90.20
2022-08-21T05:14:13.999Z,90.03
2022-08-21T05:16:41.533Z,90.16
2022-08-21T05:19:08.290Z,90.35
2022-08-21T05:21:36.076Z,90.45
2022-08-21T05:24:03.114Z,90.72
2022-08-21T05:26:29.555Z,90.45
2022-08-21T05:28:57.383Z,90.51
2022-08-21T05:31:24.117Z,90.49
2022-08-21T05:33:50.747Z,90.25
2022-08-21T05:36:19.416Z,89.51
2022-08-21T05:38:46.846Z,88.81
2022-08-21T05:41:13.579Z,88.54
2022-08-21T05:43:40.316Z,87.74
2022-08-21T05:46:08.615Z,87.41
2022-08-21T05:48:36.614Z,86.81
2022-08-21T05:51:12.185Z,87.15
2022-08-21T05:53:39.398Z,85.80
2022-08-21T05:56:06.340Z,85.96
2022-08-21T05:58:34.128Z,84.99
2022-08-21T06:01:03.116Z,85.00
2022-08-21T06:03:32.902Z,84.92
2022-08-21T06:05:59.699Z,85.12
2022-08-21T06:08:27.108Z,84.61
2022-08-21T06:10:55.720Z,83.47
2022-08-21T06:13:23.310Z,83.29
2022-08-21T06:15:51.186Z,81.23
2022-08-21T06:18:17.752Z,79.22
2022-08-21T06:20:45.060Z,78.07
2022-08-21T06:23:11.578Z,77.62
2022-08-21T06:25:37.985Z,75.01
2022-08-21T06:28:07.492Z,74.58
2022-08-21T06:30:34.950Z,72.96
2022-08-21T06:33:02.440Z,73.79
2022-08-21T06:35:30.072Z,69.06
2022-08-21T06:37:58.139Z,64.47
2022-08-21T06:40:25.089Z,62.83
2022-08-21T06:42:51.596Z,62.56
2022-08-21T06:45:18.422Z,61.25
2022-08-21T06:47:44.858Z,60.11
2022-08-21T06:50:11.510Z,60.14
2022-08-21T06:52:38.538Z,60.21
2022-08-21T06:55:07.574Z,61.20
2022-08-21T06:57:34.591Z,60.09
2022-08-21T07:00:01.186Z,60.19
2022-08-21T07:02:27.665Z,57.94
2022-08-21T07:04:54.191Z,57.85
2022-08-21T07:07:20.599Z,56.95
2022-08-21T07:09:47.031Z,56.67
2022-08-21T07:12:13.912Z,56.32
2022-08-21T07:14:40.427Z,55.76
2022-08-21T07:17:06.892Z,55.74
2022-08-21T07:19:33.371Z,55.72
2022-08-21T07:22:03.092Z,55.03
2022-08-21T07:24:30.188Z,54.99
2022-08-21T07:26:56.654Z,54.57
2022-08-21T07:29:23.089Z,54.86
2022-08-21T07:31:49.546Z,54.69
2022-08-21T07:34:17.225Z,54.14
2022-08-21T07:36:43.733Z,54.66
2022-08-21T07:39:10.402Z,55.16
2022-08-21T07:41:37.131Z,54.66
2022-08-21T07:44:04.083Z,53.88
2022-08-21T07:46:33.163Z,53.65
2022-08-21T07:48:59.638Z,53.77
2022-08-21T07:51:28.654Z,54.30
2022-08-21T07:53:58.678Z,54.37
2022-08-21T07:56:25.297Z,54.20
2022-08-21T07:58:51.790Z,54.03
2022-08-21T08:01:18.507Z,53.89
2022-08-21T08:03:46.095Z,54.58
2022-08-21T08:06:17.598Z,53.61
2022-08-21T08:08:44.127Z,53.36
2022-08-21T08:11:11.965Z,52.71
2022-08-21T08:13:44.450Z,53.77
2022-08-21T08:16:11.181Z,53.54
2022-08-21T08:18:38.344Z,53.89
2022-08-21T08:21:05.989Z,53.81
2022-08-21T08:23:33.397Z,53.77
2022-08-21T08:26:00.148Z,54.73
2022-08-21T08:28:28.098Z,54.25
2022-08-21T08:30:54.569Z,53.57
2022-08-21T08:33:21.258Z,53.64
2022-08-21T08:35:50.304Z,53.57
2022-08-21T08:38:20.917Z,52.80
2022-08-21T08:41:19.853Z,53.68
2022-08-21T08:43:54.442Z,52.30
2022-08-21T08:46:31.575Z,52.15
2022-08-21T08:49:04.099Z,52.03
2022-08-21T08:51:55.860Z,52.50
2022-08-21T08:54:42.505Z,52.55
2022-08-21T08:57:16.874Z,52.38
2022-08-21T08:59:49.263Z,54.03
2022-08-21T09:02:17.685Z,52.27
2022-08-21T09:04:47.689Z,52.75
2022-08-21T09:07:25.298Z,53.67
2022-08-21T09:10:29.026Z,52.86
2022-08-21T09:13:10.354Z,51.99
2022-08-21T09:15:55.555Z,51.65
2022-08-21T09:18:28.497Z,50.80
2022-08-21T09:21:14.491Z,51.70
2022-08-21T09:23:56.344Z,50.80
2022-08-21T09:26:40.726Z,48.93
2022-08-21T09:29:11.612Z,49.18
2022-08-21T09:31:39.234Z,49.26
2022-08-21T09:34:09.705Z,48.59
2022-08-21T09:36:43.975Z,48.75
2022-08-21T09:39:13.439Z,47.87
2022-08-21T09:41:41.114Z,46.12
2022-08-21T09:44:09.492Z,45.15
2022-08-21T09:46:37.305Z,43.93
2022-08-21T09:49:06.870Z,43.67
2022-08-21T09:51:52.415Z,43.97
2022-08-21T09:54:22.525Z,42.37
2022-08-21T09:57:20.059Z,43.14
2022-08-21T09:59:47.823Z,42.79
2022-08-21T10:02:32.244Z,43.15
2022-08-21T10:05:03.778Z,43.18
2022-08-21T10:07:32.906Z,43.19
2022-08-21T10:10:05.332Z,43.18
2022-08-21T10:13:13.015Z,43.38
2022-08-21T10:16:05.747Z,42.69
2022-08-21T10:18:43.370Z,42.81
2022-08-21T10:21:24.614Z,42.97
2022-08-21T10:24:24.006Z,43.47
2022-08-21T10:27:19.592Z,42.89
2022-08-21T10:30:02.416Z,42.39
2022-08-21T10:32:44.550Z,42.25
2022-08-21T10:35:15.405Z,42.25
2022-08-21T10:37:50.951Z,41.82
2022-08-21T10:40:37.898Z,41.53
2022-08-21T10:43:39.271Z,37.89
2022-08-21T10:46:11.805Z,39.14
2022-08-21T10:48:44.075Z,38.96
2022-08-21T10:51:51.215Z,39.46
2022-08-21T10:54:45.564Z,38.13
2022-08-21T10:57:32.368Z,38.13
2022-08-21T11:00:12.763Z,37.48
2022-08-21T11:02:57.542Z,37.98
2022-08-21T11:05:36.263Z,37.11
2022-08-21T11:08:09.524Z,35.88
2022-08-21T11:10:59.331Z,37.46
2022-08-21T11:13:41.408Z,36.07
2022-08-21T11:16:27.117Z,36.57
2022-08-21T11:19:01.889Z,35.41
2022-08-21T11:21:31.977Z,35.33
2022-08-21T11:24:10.736Z,35.84
2022-08-21T11:26:43.976Z,35.87
2022-08-21T11:29:18.620Z,36.41
2022-08-21T11:32:03.858Z,34.56
2022-08-21T11:34:58.318Z,35.97
2022-08-21T11:37:51.202Z,36.93
2022-08-21T11:40:38.774Z,35.82
2022-08-21T11:43:35.810Z,35.97
2022-08-21T11:46:19.907Z,35.93
2022-08-21T11:48:49.161Z,35.63
2022-08-21T11:51:34.395Z,36.48
2022-08-21T11:54:11.885Z,36.41
2022-08-21T11:56:44.311Z,35.84
2022-08-21T11:59:17.670Z,36.77
2022-08-21T12:01:46.672Z,36.63
2022-08-21T12:04:30.273Z,35.89
2022-08-21T12:06:57.370Z,35.18
2022-08-21T12:09:26.582Z,35.59
2022-08-21T12:12:23.507Z,35.59
2022-08-21T12:14:52.535Z,34.35
2022-08-21T12:17:27.616Z,34.35
2022-08-21T12:20:15.585Z,33.98
2022-08-21T12:22:42.604Z,33.76
2022-08-21T12:25:19.652Z,34.67
2022-08-21T12:27:52.514Z,34.24
2022-08-21T12:30:37.515Z,34.62
2022-08-21T12:33:18.969Z,34.18
2022-08-21T12:35:46.631Z,33.65
2022-08-21T12:38:33.350Z,32.95
2022-08-21T12:41:16.122Z,31.21
2022-08-21T12:43:52.588Z,30.56
2022-08-21T12:46:23.290Z,30.66
2022-08-21T12:48:55.719Z,29.98
2022-08-21T12:51:34.446Z,30.39
2022-08-21T12:54:01.292Z,29.48
2022-08-21T12:56:32.385Z,30.18
2022-08-21T12:59:05.236Z,31.15
2022-08-21T13:01:41.999Z,30.86
2022-08-21T13:04:14.935Z,31.27
2022-08-21T13:06:45.901Z,31.03
2022-08-21T13:09:16.352Z,32.45
2022-08-21T13:11:46.392Z,31.88
2022-08-21T13:14:33.022Z,32.37
2022-08-21T13:17:01.336Z,31.73
2022-08-21T13:19:30.423Z,31.97
2022-08-21T13:21:57.294Z,32.21
2022-08-21T13:24:44.185Z,32.96
2022-08-21T13:27:27.804Z,33.14
2022-08-21T13:30:03.414Z,33.64
2022-08-21T13:32:32.689Z,32.99
2022-08-21T13:35:00.858Z,34.11
2022-08-21T13:37:29.926Z,32.90
2022-08-21T13:39:56.731Z,33.36
2022-08-21T13:42:24.985Z,33.28
2022-08-21T13:44:53.625Z,33.55
2022-08-21T13:47:20.419Z,33.63
2022-08-21T13:49:48.671Z,34.20
2022-08-21T13:52:20.244Z,33.47
2022-08-21T13:54:55.930Z,33.93
2022-08-21T13:57:29.736Z,34.25
2022-08-21T14:00:14.911Z,34.80
2022-08-21T14:02:44.284Z,33.55
2022-08-21T14:05:22.892Z,34.04
2022-08-21T14:07:51.920Z,33.18
2022-08-21T14:10:22.986Z,34.17
2022-08-21T14:12:53.630Z,33.79
2022-08-21T14:15:25.947Z,33.96
2022-08-21T14:17:52.673Z,34.32
2022-08-21T14:20:31.759Z,34.17
2022-08-21T14:22:58.473Z,33.79
2022-08-21T14:25:25.421Z,33.21
2022-08-21T14:28:13.842Z,33.92
2022-08-21T14:30:44.849Z,33.49
2022-08-21T14:33:15.229Z,33.48
2022-08-21T14:35:42.677Z,32.65
2022-08-21T14:38:22.573Z,32.42
2022-08-21T14:40:58.712Z,31.63
2022-08-21T14:43:27.453Z,32.11
2022-08-21T14:45:54.801Z,30.77
2022-08-21T14:48:21.220Z,31.01
2022-08-21T14:50:48.358Z,31.45
2022-08-21T14:53:14.852Z,30.89
2022-08-21T14:55:59.942Z,31.05
2022-08-21T14:58:26.909Z,30.40
2022-08-21T15:00:54.915Z,30.51
2022-08-21T15:03:22.843Z,30.54
2022-08-21T15:05:50.066Z,30.84
2022-08-21T15:08:17.067Z,30.75
2022-08-21T15:11:08.243Z,31.17
2022-08-21T15:13:31.721Z,30.90
2022-08-21T15:15:59.150Z,30.51
2022-08-21T15:18:29.020Z,30.20
2022-08-21T15:20:55.569Z,30.38
2022-08-21T15:23:22.642Z,30.02
2022-08-21T15:25:50.301Z,30.66
2022-08-21T15:28:18.999Z,29.87
2022-08-21T15:30:46.235Z,30.13
2022-08-21T15:33:12.851Z,30.91
2022-08-21T15:35:41.201Z,29.68
2022-08-21T15:38:11.196Z,30.40
2022-08-21T15:40:39.393Z,29.98
2022-08-21T15:43:29.915Z,29.44
2022-08-21T15:45:59.221Z,30.03
2022-08-21T15:48:25.732Z,29.88
2022-08-21T15:50:52.135Z,29.50
2022-08-21T15:53:18.738Z,29.43
2022-08-21T15:55:45.246Z,29.22
2022-08-21T15:58:16.626Z,29.76
2022-08-21T16:00:45.116Z,30.01
2022-08-21T16:03:17.621Z,29.58
2022-08-21T16:05:49.537Z,29.88
2022-08-21T16:08:16.085Z,29.82
2022-08-21T16:10:42.677Z,29.46
2022-08-21T16:13:20.988Z,29.49
2022-08-21T16:15:47.425Z,29.80
2022-08-21T16:18:14.181Z,29.41
2022-08-21T16:20:41.052Z,29.46
2022-08-21T16:23:07.602Z,29.79
2022-08-21T16:25:37.852Z,30.53
2022-08-21T16:28:09.372Z,30.92
2022-08-21T16:30:38.782Z,30.78
2022-08-21T16:33:06.762Z,30.63
2022-08-21T16:35:33.398Z,30.74
2022-08-21T16:37:59.873Z,31.21
2022-08-21T16:40:27.731Z,31.27
2022-08-21T16:42:54.436Z,31.46
2022-08-21T16:45:21.880Z,31.74
2022-08-21T16:47:48.562Z,32.18
2022-08-21T16:50:19.385Z,32.34
2022-08-21T16:52:45.813Z,32.74
2022-08-21T16:55:12.390Z,33.02
2022-08-21T16:57:38.963Z,33.80
2022-08-21T17:00:14.039Z,34.30
2022-08-21T17:02:45.441Z,34.52
2022-08-21T17:05:12.899Z,35.01
2022-08-21T17:07:41.514Z,35.63
2022-08-21T17:10:09.494Z,35.95
2022-08-21T17:12:36.705Z,35.89
2022-08-21T17:15:13.250Z,36.60
2022-08-21T17:17:39.730Z,36.98
2022-08-21T17:20:06.860Z,37.96
2022-08-21T17:22:33.398Z,38.80
2022-08-21T17:24:59.920Z,39.19
2022-08-21T17:27:28.173Z,39.82
2022-08-21T17:29:56.040Z,40.06
2022-08-21T17:32:23.229Z,40.51
2022-08-21T17:34:49.708Z,40.89
2022-08-21T17:37:16.571Z,41.50
2022-08-21T17:39:43.243Z,42.24
2022-08-21T17:42:13.605Z,42.48
2022-08-21T17:44:43.565Z,43.14
2022-08-21T17:47:10.510Z,42.37
2022-08-21T17:49:37.568Z,44.53
2022-08-21T17:52:04.736Z,45.57
2022-08-21T17:54:31.248Z,46.13
2022-08-21T17:56:58.206Z,46.34
2022-08-21T17:59:24.908Z,46.93
2022-08-21T18:01:51.433Z,47.63
2022-08-21T18:04:18.098Z,47.95
2022-08-21T18:06:45.146Z,48.91
2022-08-21T18:09:12.828Z,49.05
2022-08-21T18:11:41.899Z,49.45
2022-08-21T18:14:10.383Z,50.30
2022-08-21T18:16:37.793Z,50.74
2022-08-21T18:19:15.815Z,51.09
2022-08-21T18:21:42.389Z,51.78
2022-08-21T18:24:08.914Z,52.32
2022-08-21T18:26:39.344Z,52.87
2022-08-21T18:29:08.664Z,53.39
2022-08-21T18:31:38.025Z,53.79
2022-08-21T18:34:17.017Z,53.83
2022-08-21T18:36:46.046Z,54.58
2022-08-21T18:39:34.974Z,55.49
2022-08-21T18:42:02.461Z,56.03
2022-08-21T18:44:30.304Z,56.17
2022-08-21T18:47:07.367Z,56.08
2022-08-21T18:49:34.355Z,57.04
2022-08-21T18:52:00.828Z,57.49
2022-08-21T18:54:29.817Z,57.87
2022-08-21T18:56:56.454Z,58.22
2022-08-21T18:59:26.889Z,58.66
2022-08-21T19:01:54.325Z,58.46
2022-08-21T19:04:42.962Z,59.11
2022-08-21T19:07:07.551Z,59.28
2022-08-21T19:09:33.961Z,59.63
2022-08-21T19:12:00.521Z,59.78
2022-08-21T19:14:28.284Z,60.36
2022-08-21T19:16:54.897Z,60.56
2022-08-21T19:19:21.377Z,60.63
2022-08-21T19:21:49.451Z,60.94
2022-08-21T19:27:02.736Z,61.62
2022-08-21T19:29:35.026Z,61.97
2022-08-21T19:32:15.682Z,62.36
2022-08-21T19:34:44.721Z,62.79
2022-08-21T19:37:16.196Z,62.96
2022-08-21T19:39:48.601Z,63.15
2022-08-21T19:42:17.225Z,63.63
2022-08-21T19:44:45.241Z,64.02
2022-08-21T19:47:19.156Z,64.13
2022-08-21T19:49:54.314Z,64.77
2022-08-21T19:52:21.906Z,64.90
2022-08-21T19:54:48.915Z,65.65
2022-08-21T19:57:16.507Z,66.05
2022-08-21T19:59:43.532Z,66.38
2022-08-21T20:02:12.122Z,66.50
2022-08-21T20:04:38.922Z,66.81
2022-08-21T20:07:26.513Z,67.13
2022-08-21T20:09:54.058Z,67.20
2022-08-21T20:12:20.539Z,66.80
2022-08-21T20:14:47.803Z,67.10
2022-08-21T20:17:17.467Z,67.72
2022-08-21T20:19:45.131Z,67.46
2022-08-21T20:22:12.122Z,67.79
2022-08-21T20:24:39.564Z,67.73
2022-08-21T20:27:10.319Z,68.21
2022-08-21T20:29:39.366Z,67.88
2022-08-21T20:32:07.942Z,67.77
2022-08-21T20:34:39.402Z,67.99
2022-08-21T20:37:05.911Z,68.37
2022-08-21T20:39:32.357Z,68.53
2022-08-21T20:41:58.895Z,69.15
2022-08-21T20:44:30.953Z,69.44
2022-08-21T20:46:59.138Z,69.16
2022-08-21T20:49:31.789Z,69.49
2022-08-21T20:52:00.870Z,69.59
2022-08-21T20:54:56.170Z,69.20
2022-08-21T20:57:51.113Z,69.62
2022-08-21T21:00:21.173Z,70.16
2022-08-21T21:03:01.708Z,70.05
2022-08-21T21:05:36.542Z,70.69
2022-08-21T21:08:25.217Z,70.44
2022-08-21T21:10:58.080Z,70.44
2022-08-21T21:13:33.949Z,70.87
2022-08-21T21:16:08.501Z,70.84
2022-08-21T21:18:42.905Z,70.38
2022-08-21T21:21:32.970Z,70.67
2022-08-21T21:24:12.094Z,70.50
2022-08-21T21:26:48.720Z,71.15
2022-08-21T21:29:30.036Z,71.42
2022-08-21T21:31:56.886Z,71.55
2022-08-21T21:34:26.725Z,71.78
2022-08-21T21:37:05.858Z,71.76
2022-08-21T21:39:50.746Z,71.66
2022-08-21T21:42:41.545Z,72.04
2022-08-21T21:45:23.600Z,72.23
2022-08-21T21:48:03.578Z,72.72
2022-08-21T21:51:01.131Z,72.80
2022-08-21T21:53:55.330Z,72.86
2022-08-21T21:57:10.013Z,72.29
2022-08-21T22:00:01.271Z,73.09
2022-08-21T22:02:30.745Z,73.59
2022-08-21T22:05:18.201Z,73.05
2022-08-21T22:07:54.917Z,73.39
2022-08-21T22:13:26.564Z,73.16
2022-08-21T22:15:54.493Z,72.96
2022-08-21T22:18:26.987Z,73.05
2022-08-21T22:21:11.956Z,73.01
2022-08-21T22:23:44.901Z,72.72
2022-08-21T22:26:16.755Z,72.89
2022-08-21T22:28:47.398Z,73.17
2022-08-21T22:31:21.814Z,73.29
2022-08-21T22:34:02.384Z,73.01
2022-08-21T22:36:35.713Z,73.01
2022-08-21T22:39:11.939Z,73.15
2022-08-21T22:41:44.075Z,73.18
2022-08-21T22:44:27.460Z,73.10
2022-08-21T22:46:57.089Z,73.24
2022-08-21T22:49:35.355Z,73.52
2022-08-21T22:52:08.007Z,73.45
2022-08-21T22:54:45.183Z,73.58
2022-08-21T22:57:21.784Z,73.13
2022-08-21T23:00:00.636Z,72.89
2022-08-21T23:02:43.528Z,73.01
2022-08-21T23:05:34.688Z,72.67
2022-08-21T23:08:46.318Z,72.56
2022-08-21T23:11:20.895Z,72.66
2022-08-21T23:13:52.630Z,72.65
2022-08-21T23:16:25.053Z,73.19
2022-08-21T23:18:51.956Z,73.07
2022-08-21T23:21:57.743Z,73.16
2022-08-21T23:24:33.559Z,72.83
2022-08-21T23:27:18.729Z,72.81
2022-08-21T23:30:03.282Z,72.97
2022-08-21T23:32:52.546Z,73.65
2022-08-21T23:35:59.634Z,73.73
2022-08-21T23:38:51.316Z,74.09
2022-08-21T23:41:44.190Z,73.90
2022-08-21T23:44:33.136Z,74.26
2022-08-21T23:47:14.495Z,74.68
2022-08-21T23:49:47.700Z,74.93
2022-08-21T23:52:19.842Z,74.91
2022-08-21T23:54:52.392Z,74.95
2022-08-21T23:57:39.398Z,74.73
